createdAt,value
2017-01-16T00:00:08.613Z,72482
2017-01-16T00:00:17.305Z,72484
2017-01-16T00:00:25.985Z,72485
2017-01-16T00:00:34.659Z,72488
2017-01-16T00:00:43.315Z,72483
2017-01-16T00:00:51.990Z,72483
2017-01-16T00:01:00.661Z,72481
2017-01-16T00:01:09.342Z,72482
2017-01-16T00:01:18.018Z,72482
2017-01-16T00:01:26.679Z,72483
2017-01-16T00:01:35.346Z,72482
2017-01-16T00:01:44.054Z,72483
2017-01-16T00:01:52.733Z,72484
2017-01-16T00:02:01.418Z,72481
2017-01-16T00:02:10.083Z,72482
2017-01-16T00:02:18.760Z,72482
2017-01-16T00:02:27.444Z,72478
2017-01-16T00:02:36.101Z,72483
2017-01-16T00:02:44.782Z,72483
2017-01-16T00:02:53.446Z,72480
2017-01-16T00:03:02.122Z,72481
2017-01-16T00:03:10.793Z,72476
2017-01-16T00:03:19.463Z,72475
2017-01-16T00:03:28.132Z,72476
2017-01-16T00:03:36.807Z,72476
2017-01-16T00:03:45.474Z,72475
2017-01-16T00:03:54.152Z,72476
2017-01-16T00:04:02.831Z,72478
2017-01-16T00:04:11.496Z,72479
2017-01-16T00:04:20.142Z,72481
2017-01-16T00:04:28.832Z,72478
2017-01-16T00:04:37.502Z,72479
2017-01-16T00:04:46.156Z,72477
2017-01-16T00:04:54.836Z,72484
2017-01-16T00:05:03.890Z,72481
2017-01-16T00:05:12.559Z,72481
2017-01-16T00:05:21.222Z,72482
2017-01-16T00:05:29.894Z,72482
2017-01-16T00:05:38.573Z,72483
2017-01-16T00:05:47.230Z,72481
2017-01-16T00:05:55.914Z,72479
2017-01-16T00:06:04.580Z,72483
2017-01-16T00:06:13.266Z,72486
2017-01-16T00:06:21.936Z,72485
2017-01-16T00:06:30.639Z,72485
2017-01-16T00:06:39.296Z,72486
2017-01-16T00:06:47.948Z,72484
2017-01-16T00:06:56.616Z,72485
2017-01-16T00:07:05.289Z,72485
2017-01-16T00:07:13.994Z,72483
2017-01-16T00:07:22.672Z,72485
2017-01-16T00:07:31.337Z,72486
2017-01-16T00:07:40.013Z,72486
2017-01-16T00:07:48.683Z,72486
2017-01-16T00:07:57.344Z,72483
2017-01-16T00:08:06.021Z,72481
2017-01-16T00:08:14.706Z,72481
2017-01-16T00:08:23.386Z,72481
2017-01-16T00:08:32.059Z,72480
2017-01-16T00:08:40.713Z,72483
2017-01-16T00:08:49.382Z,72483
2017-01-16T00:08:58.066Z,72486
2017-01-16T00:09:06.722Z,72479
2017-01-16T00:09:15.390Z,72484
2017-01-16T00:09:24.091Z,72485
2017-01-16T00:09:32.749Z,72484
2017-01-16T00:09:41.463Z,72479
2017-01-16T00:09:50.151Z,72481
2017-01-16T00:09:58.826Z,72481
2017-01-16T00:10:07.497Z,72477
2017-01-16T00:10:16.162Z,72480
2017-01-16T00:10:24.847Z,72481
2017-01-16T00:10:33.521Z,72481
2017-01-16T00:10:42.185Z,72478
2017-01-16T00:10:50.846Z,72475
2017-01-16T00:10:59.499Z,72477
2017-01-16T00:11:08.177Z,72478
2017-01-16T00:11:16.824Z,72480
2017-01-16T00:11:25.478Z,72476
2017-01-16T00:11:34.130Z,72476
2017-01-16T00:11:42.793Z,72475
2017-01-16T00:11:51.479Z,72484
2017-01-16T00:12:00.152Z,72479
2017-01-16T00:12:08.842Z,72479
2017-01-16T00:12:17.529Z,72479
2017-01-16T00:12:26.220Z,72481
2017-01-16T00:12:34.892Z,72476
2017-01-16T00:12:43.568Z,72474
2017-01-16T00:12:52.218Z,72477
2017-01-16T00:13:00.886Z,72470
2017-01-16T00:13:09.932Z,72473
2017-01-16T00:13:18.599Z,72474
2017-01-16T00:13:27.244Z,72478
2017-01-16T00:13:35.922Z,72476
2017-01-16T00:13:44.620Z,72480
2017-01-16T00:13:53.299Z,72479
2017-01-16T00:14:01.951Z,72483
2017-01-16T00:14:10.620Z,72480
2017-01-16T00:14:19.273Z,72480
2017-01-16T00:14:27.931Z,72481
2017-01-16T00:14:36.619Z,72477
2017-01-16T00:14:45.302Z,72481
2017-01-16T00:14:53.994Z,72482
2017-01-16T00:15:02.678Z,72475
2017-01-16T00:15:11.360Z,72482
2017-01-16T00:15:20.069Z,72480
2017-01-16T00:15:29.121Z,72481
2017-01-16T00:15:37.809Z,72481
2017-01-16T00:15:46.486Z,72479
2017-01-16T00:15:55.170Z,72482
2017-01-16T00:16:03.809Z,72478
2017-01-16T00:16:12.491Z,72475
2017-01-16T00:16:21.146Z,72480
2017-01-16T00:16:29.813Z,72477
2017-01-16T00:16:38.477Z,72480
2017-01-16T00:16:47.153Z,72482
2017-01-16T00:16:55.812Z,72484
2017-01-16T00:17:04.482Z,72481
2017-01-16T00:17:13.154Z,72475
2017-01-16T00:17:21.830Z,72481
2017-01-16T00:17:30.491Z,72478
2017-01-16T00:17:39.144Z,72478
2017-01-16T00:17:47.826Z,72482
2017-01-16T00:17:56.511Z,72481
2017-01-16T00:18:05.192Z,72479
2017-01-16T00:18:13.876Z,72479
2017-01-16T00:18:22.571Z,72486
2017-01-16T00:18:31.248Z,72482
2017-01-16T00:18:39.923Z,72483
2017-01-16T00:18:48.608Z,72482
2017-01-16T00:18:57.332Z,72480
2017-01-16T00:19:05.996Z,72481
2017-01-16T00:19:14.659Z,72479
2017-01-16T00:19:23.338Z,72478
2017-01-16T00:19:32.049Z,72474
2017-01-16T00:19:40.728Z,72473
2017-01-16T00:19:49.407Z,72478
2017-01-16T00:19:58.099Z,72478
2017-01-16T00:20:06.755Z,72478
2017-01-16T00:20:15.446Z,72480
2017-01-16T00:20:24.130Z,72481
2017-01-16T00:20:32.796Z,72481
2017-01-16T00:20:41.495Z,72476
2017-01-16T00:20:50.162Z,72482
2017-01-16T00:20:58.825Z,72480
2017-01-16T00:21:07.499Z,72479
2017-01-16T00:21:16.174Z,72480
2017-01-16T00:21:24.873Z,72480
2017-01-16T00:21:33.535Z,72482
2017-01-16T00:21:42.208Z,72481
2017-01-16T00:21:50.895Z,72483
2017-01-16T00:21:59.581Z,72480
2017-01-16T00:22:08.259Z,72480
2017-01-16T00:22:16.923Z,72477
2017-01-16T00:22:25.592Z,72477
2017-01-16T00:22:34.251Z,72479
2017-01-16T00:22:42.913Z,72481
2017-01-16T00:22:51.591Z,72481
2017-01-16T00:23:00.264Z,72485
2017-01-16T00:23:09.281Z,72482
2017-01-16T00:23:17.934Z,72482
2017-01-16T00:23:26.589Z,72482
2017-01-16T00:23:35.256Z,72483
2017-01-16T00:23:43.931Z,72483
2017-01-16T00:23:52.615Z,72482
2017-01-16T00:24:01.289Z,72482
2017-01-16T00:24:09.941Z,72478
2017-01-16T00:24:18.609Z,72479
2017-01-16T00:24:27.289Z,72478
2017-01-16T00:24:35.965Z,72477
2017-01-16T00:24:44.633Z,72482
2017-01-16T00:24:53.321Z,72482
2017-01-16T00:25:02.010Z,72481
2017-01-16T00:25:10.680Z,72480
2017-01-16T00:25:19.378Z,72477
2017-01-16T00:25:28.057Z,72482
2017-01-16T00:25:36.741Z,72481
2017-01-16T00:25:45.410Z,72482
2017-01-16T00:25:54.102Z,72480
2017-01-16T00:26:02.756Z,72476
2017-01-16T00:26:11.441Z,72477
2017-01-16T00:26:20.118Z,72476
2017-01-16T00:26:28.780Z,72480
2017-01-16T00:26:37.456Z,72477
2017-01-16T00:26:46.135Z,72478
2017-01-16T00:26:54.783Z,72478
2017-01-16T00:27:03.464Z,72478
2017-01-16T00:27:12.131Z,72474
2017-01-16T00:27:20.796Z,72478
2017-01-16T00:27:29.473Z,72478
2017-01-16T00:27:38.142Z,72478
2017-01-16T00:27:46.831Z,72479
2017-01-16T00:27:55.514Z,72476
2017-01-16T00:28:04.181Z,72477
2017-01-16T00:28:12.868Z,72475
2017-01-16T00:28:21.550Z,72476
2017-01-16T00:28:30.227Z,72476
2017-01-16T00:28:38.889Z,72478
2017-01-16T00:28:47.547Z,72478
2017-01-16T00:28:56.230Z,72474
2017-01-16T00:29:04.896Z,72482
2017-01-16T00:29:13.546Z,72479
2017-01-16T00:29:22.237Z,72479
2017-01-16T00:29:30.893Z,72475
2017-01-16T00:29:39.574Z,72479
2017-01-16T00:29:48.219Z,72478
2017-01-16T00:29:57.020Z,72478
2017-01-16T00:30:05.680Z,72481
2017-01-16T00:30:14.357Z,72477
2017-01-16T00:30:23.022Z,72477
2017-01-16T00:30:31.696Z,72480
2017-01-16T00:30:40.401Z,72476
2017-01-16T00:30:49.072Z,72480
2017-01-16T00:30:57.738Z,72483
2017-01-16T00:31:06.411Z,72481
2017-01-16T00:31:15.065Z,72479
2017-01-16T00:31:23.733Z,72481
2017-01-16T00:31:32.410Z,72478
2017-01-16T00:31:41.089Z,72478
2017-01-16T00:31:49.773Z,72475
2017-01-16T00:31:58.445Z,72481
2017-01-16T00:32:07.123Z,72479
2017-01-16T00:32:15.786Z,72476
2017-01-16T00:32:24.461Z,72479
2017-01-16T00:32:33.142Z,72483
2017-01-16T00:32:41.817Z,72479
2017-01-16T00:32:50.492Z,72476
2017-01-16T00:32:59.177Z,72478
2017-01-16T00:33:07.858Z,72480
2017-01-16T00:33:16.521Z,72479
2017-01-16T00:33:25.199Z,72476
2017-01-16T00:33:33.893Z,72480
2017-01-16T00:33:42.581Z,72480
2017-01-16T00:33:51.251Z,72478
2017-01-16T00:33:59.908Z,72479
2017-01-16T00:34:08.581Z,72477
2017-01-16T00:34:17.248Z,72479
2017-01-16T00:34:25.913Z,72477
2017-01-16T00:34:34.578Z,72473
2017-01-16T00:34:43.253Z,72475
2017-01-16T00:34:51.931Z,72476
2017-01-16T00:35:00.617Z,72476
2017-01-16T00:35:09.315Z,72477
2017-01-16T00:35:17.981Z,72476
2017-01-16T00:35:26.653Z,72476
2017-01-16T00:35:35.302Z,72473
2017-01-16T00:35:43.977Z,72474
2017-01-16T00:35:52.692Z,72474
2017-01-16T00:36:01.367Z,72474
2017-01-16T00:36:10.010Z,72477
2017-01-16T00:36:19.080Z,72475
2017-01-16T00:36:27.760Z,72479
2017-01-16T00:36:36.436Z,72475
2017-01-16T00:36:45.082Z,72476
2017-01-16T00:36:53.757Z,72472
2017-01-16T00:37:02.413Z,72476
2017-01-16T00:37:11.113Z,72473
2017-01-16T00:37:19.798Z,72474
2017-01-16T00:37:28.476Z,72473
2017-01-16T00:37:37.150Z,72473
2017-01-16T00:37:45.823Z,72473
2017-01-16T00:37:54.473Z,72473
2017-01-16T00:38:03.136Z,72474
2017-01-16T00:38:11.821Z,72474
2017-01-16T00:38:20.488Z,72473
2017-01-16T00:38:29.150Z,72475
2017-01-16T00:38:37.831Z,72476
2017-01-16T00:38:46.490Z,72476
2017-01-16T00:38:55.155Z,72475
2017-01-16T00:39:03.819Z,72475
2017-01-16T00:39:12.521Z,72477
2017-01-16T00:39:21.202Z,72477
2017-01-16T00:39:29.886Z,72479
2017-01-16T00:39:38.562Z,72472
2017-01-16T00:39:47.245Z,72473
2017-01-16T00:39:55.903Z,72477
2017-01-16T00:40:04.562Z,72474
2017-01-16T00:40:13.235Z,72475
2017-01-16T00:40:21.931Z,72478
2017-01-16T00:40:30.612Z,72474
2017-01-16T00:40:39.284Z,72473
2017-01-16T00:40:47.971Z,72477
2017-01-16T00:40:56.646Z,72474
2017-01-16T00:41:05.314Z,72475
2017-01-16T00:41:13.965Z,72472
2017-01-16T00:41:22.658Z,72473
2017-01-16T00:41:31.338Z,72477
2017-01-16T00:41:40.000Z,72473
2017-01-16T00:41:48.699Z,72472
2017-01-16T00:41:57.361Z,72474
2017-01-16T00:42:06.049Z,72472
2017-01-16T00:42:14.722Z,72470
2017-01-16T00:42:23.391Z,72470
2017-01-16T00:42:32.058Z,72474
2017-01-16T00:42:40.721Z,72476
2017-01-16T00:42:49.368Z,72476
2017-01-16T00:42:58.039Z,72475
2017-01-16T00:43:06.714Z,72476
2017-01-16T00:43:15.744Z,72475
2017-01-16T00:43:24.416Z,72477
2017-01-16T00:43:33.089Z,72476
2017-01-16T00:43:41.749Z,72473
2017-01-16T00:43:50.413Z,72477
2017-01-16T00:43:59.079Z,72474
2017-01-16T00:44:07.764Z,72477
2017-01-16T00:44:16.460Z,72476
2017-01-16T00:44:25.107Z,72476
2017-01-16T00:44:33.772Z,72476
2017-01-16T00:44:42.445Z,72476
2017-01-16T00:44:51.113Z,72476
2017-01-16T00:44:59.795Z,72474
2017-01-16T00:45:08.475Z,72481
2017-01-16T00:45:17.157Z,72477
2017-01-16T00:45:25.853Z,72476
2017-01-16T00:45:34.525Z,72476
2017-01-16T00:45:43.206Z,72474
2017-01-16T00:45:51.870Z,72476
2017-01-16T00:46:00.540Z,72474
2017-01-16T00:46:09.205Z,72475
2017-01-16T00:46:17.876Z,72473
2017-01-16T00:46:26.565Z,72474
2017-01-16T00:46:35.226Z,72473
2017-01-16T00:46:43.905Z,72474
2017-01-16T00:46:52.590Z,72473
2017-01-16T00:47:01.257Z,72473
2017-01-16T00:47:09.919Z,72473
2017-01-16T00:47:18.592Z,72474
2017-01-16T00:47:27.295Z,72473
2017-01-16T00:47:35.968Z,72476
2017-01-16T00:47:44.629Z,72474
2017-01-16T00:47:53.663Z,72476
2017-01-16T00:48:02.345Z,72474
2017-01-16T00:48:11.015Z,72473
2017-01-16T00:48:19.700Z,72471
2017-01-16T00:48:28.377Z,72474
2017-01-16T00:48:37.033Z,72473
2017-01-16T00:48:45.735Z,72474
2017-01-16T00:48:54.406Z,72474
2017-01-16T00:49:03.083Z,72475
2017-01-16T00:49:11.763Z,72475
2017-01-16T00:49:20.432Z,72476
2017-01-16T00:49:29.104Z,72477
2017-01-16T00:49:37.780Z,72477
2017-01-16T00:49:46.449Z,72477
2017-01-16T00:49:55.104Z,72476
2017-01-16T00:50:03.778Z,72476
2017-01-16T00:50:12.445Z,72477
2017-01-16T00:50:21.123Z,72477
2017-01-16T00:50:29.812Z,72477
2017-01-16T00:50:38.477Z,72475
2017-01-16T00:50:47.127Z,72478
2017-01-16T00:50:55.796Z,72475
2017-01-16T00:51:04.464Z,72475
2017-01-16T00:51:13.134Z,72476
2017-01-16T00:51:21.816Z,72476
2017-01-16T00:51:30.492Z,72477
2017-01-16T00:51:39.183Z,72474
2017-01-16T00:51:47.858Z,72474
2017-01-16T00:51:56.525Z,72475
2017-01-16T00:52:05.203Z,72472
2017-01-16T00:52:13.861Z,72472
2017-01-16T00:52:22.529Z,72472
2017-01-16T00:52:31.202Z,72474
2017-01-16T00:52:39.873Z,72474
2017-01-16T00:52:48.568Z,72473
2017-01-16T00:52:57.251Z,72476
2017-01-16T00:53:05.910Z,72472
2017-01-16T00:53:14.595Z,72471
2017-01-16T00:53:23.267Z,72474
2017-01-16T00:53:31.951Z,72472
2017-01-16T00:53:40.620Z,72475
2017-01-16T00:53:49.282Z,72474
2017-01-16T00:53:57.962Z,72472
2017-01-16T00:54:06.657Z,72473
2017-01-16T00:54:15.341Z,72475
2017-01-16T00:54:24.018Z,72471
2017-01-16T00:54:32.694Z,72472
2017-01-16T00:54:41.370Z,72474
2017-01-16T00:54:50.043Z,72470
2017-01-16T00:54:58.703Z,72472
2017-01-16T00:55:07.340Z,72471
2017-01-16T00:55:15.993Z,72474
2017-01-16T00:55:24.658Z,72475
2017-01-16T00:55:33.324Z,72476
2017-01-16T00:55:41.994Z,72477
2017-01-16T00:55:50.665Z,72477
2017-01-16T00:55:59.329Z,72474
2017-01-16T00:56:07.995Z,72472
2017-01-16T00:56:16.658Z,72469
2017-01-16T00:56:25.347Z,72472
2017-01-16T00:56:34.029Z,72474
2017-01-16T00:56:42.700Z,72475
2017-01-16T00:56:51.377Z,72477
2017-01-16T00:57:00.030Z,72472
2017-01-16T00:57:08.688Z,72472
2017-01-16T00:57:17.371Z,72472
2017-01-16T00:57:26.050Z,72470
2017-01-16T00:57:34.718Z,72471
2017-01-16T00:57:43.387Z,72473
2017-01-16T00:57:52.065Z,72473
2017-01-16T00:58:00.725Z,72474
2017-01-16T00:58:09.382Z,72474
2017-01-16T00:58:18.062Z,72473
2017-01-16T00:58:26.764Z,72474
2017-01-16T00:58:35.426Z,72470
2017-01-16T00:58:44.096Z,72468
2017-01-16T00:58:52.774Z,72474
2017-01-16T00:59:01.458Z,72472
2017-01-16T00:59:10.139Z,72473
2017-01-16T00:59:18.794Z,72472
2017-01-16T00:59:27.497Z,72473
2017-01-16T00:59:36.181Z,72471
2017-01-16T00:59:44.847Z,72473
2017-01-16T00:59:53.527Z,72472
2017-01-16T01:00:02.211Z,72473
2017-01-16T01:00:10.869Z,72476
2017-01-16T01:00:19.519Z,72475
2017-01-16T01:00:28.173Z,72471
2017-01-16T01:00:36.845Z,72474
2017-01-16T01:00:45.504Z,72472
2017-01-16T01:00:54.172Z,72471
2017-01-16T01:01:02.858Z,72471
2017-01-16T01:01:11.556Z,72473
2017-01-16T01:01:20.230Z,72475
2017-01-16T01:01:28.906Z,72475
2017-01-16T01:01:37.575Z,72471
2017-01-16T01:01:46.250Z,72472
2017-01-16T01:01:54.935Z,72471
2017-01-16T01:02:03.650Z,72471
2017-01-16T01:02:12.336Z,72473
2017-01-16T01:02:21.007Z,72473
2017-01-16T01:02:29.671Z,72473
2017-01-16T01:02:38.364Z,72473
2017-01-16T01:02:47.024Z,72473
2017-01-16T01:02:55.688Z,72474
2017-01-16T01:03:04.774Z,72471
2017-01-16T01:03:13.438Z,72472
2017-01-16T01:03:22.110Z,72471
2017-01-16T01:03:30.787Z,72471
2017-01-16T01:03:39.450Z,72470
2017-01-16T01:03:48.107Z,72470
2017-01-16T01:03:57.154Z,72474
2017-01-16T01:04:05.821Z,72471
2017-01-16T01:04:14.496Z,72472
2017-01-16T01:04:23.144Z,72470
2017-01-16T01:04:31.817Z,72472
2017-01-16T01:04:40.473Z,72473
2017-01-16T01:04:49.150Z,72473
2017-01-16T01:04:57.835Z,72472
2017-01-16T01:05:06.521Z,72474
2017-01-16T01:05:15.175Z,72470
2017-01-16T01:05:23.841Z,72473
2017-01-16T01:05:32.506Z,72470
2017-01-16T01:05:41.184Z,72471
2017-01-16T01:05:49.854Z,72473
2017-01-16T01:05:58.550Z,72472
2017-01-16T01:06:07.215Z,72470
2017-01-16T01:06:15.895Z,72472
2017-01-16T01:06:24.594Z,72471
2017-01-16T01:06:33.270Z,72475
2017-01-16T01:06:41.939Z,72473
2017-01-16T01:06:50.606Z,72473
2017-01-16T01:06:59.276Z,72472
2017-01-16T01:07:07.953Z,72472
2017-01-16T01:07:16.619Z,72473
2017-01-16T01:07:25.281Z,72474
2017-01-16T01:07:33.951Z,72472
2017-01-16T01:07:42.644Z,72474
2017-01-16T01:07:51.322Z,72475
2017-01-16T01:08:00.023Z,72473
2017-01-16T01:08:08.709Z,72471
2017-01-16T01:08:17.386Z,72473
2017-01-16T01:08:26.057Z,72471
2017-01-16T01:08:34.714Z,72469
2017-01-16T01:08:43.394Z,72469
2017-01-16T01:08:52.071Z,72474
2017-01-16T01:09:00.720Z,72470
2017-01-16T01:09:09.406Z,72471
2017-01-16T01:09:18.078Z,72474
2017-01-16T01:09:26.772Z,72472
2017-01-16T01:09:35.437Z,72470
2017-01-16T01:09:44.113Z,72472
2017-01-16T01:09:52.781Z,72472
2017-01-16T01:10:01.445Z,72471
2017-01-16T01:10:10.126Z,72468
2017-01-16T01:10:18.809Z,72471
2017-01-16T01:10:27.474Z,72473
2017-01-16T01:10:36.142Z,72476
2017-01-16T01:10:44.818Z,72475
2017-01-16T01:10:53.501Z,72471
2017-01-16T01:11:02.167Z,72473
2017-01-16T01:11:10.843Z,72474
2017-01-16T01:11:19.519Z,72472
2017-01-16T01:11:28.211Z,72471
2017-01-16T01:11:36.889Z,72475
2017-01-16T01:11:45.562Z,72471
2017-01-16T01:11:54.261Z,72468
2017-01-16T01:12:02.937Z,72473
2017-01-16T01:12:11.594Z,72469
2017-01-16T01:12:20.261Z,72471
2017-01-16T01:12:28.936Z,72473
2017-01-16T01:12:37.617Z,72472
2017-01-16T01:12:46.301Z,72473
2017-01-16T01:12:54.966Z,72473
2017-01-16T01:13:03.689Z,72473
2017-01-16T01:13:12.356Z,72469
2017-01-16T01:13:21.019Z,72471
2017-01-16T01:13:29.686Z,72471
2017-01-16T01:13:38.364Z,72473
2017-01-16T01:13:47.033Z,72473
2017-01-16T01:13:55.719Z,72473
2017-01-16T01:14:04.394Z,72472
2017-01-16T01:14:13.089Z,72470
2017-01-16T01:14:21.768Z,72475
2017-01-16T01:14:30.450Z,72473
2017-01-16T01:14:39.130Z,72470
2017-01-16T01:14:47.816Z,72473
2017-01-16T01:14:56.509Z,72471
2017-01-16T01:15:05.196Z,72472
2017-01-16T01:15:13.882Z,72473
2017-01-16T01:15:22.540Z,72474
2017-01-16T01:15:31.211Z,72472
2017-01-16T01:15:39.879Z,72473
2017-01-16T01:15:48.542Z,72472
2017-01-16T01:15:57.210Z,72470
2017-01-16T01:16:05.887Z,72473
2017-01-16T01:16:14.558Z,72470
2017-01-16T01:16:23.229Z,72472
2017-01-16T01:16:31.902Z,72474
2017-01-16T01:16:40.563Z,72471
2017-01-16T01:16:49.242Z,72471
2017-01-16T01:16:57.920Z,72470
2017-01-16T01:17:06.584Z,72470
2017-01-16T01:17:15.238Z,72472
2017-01-16T01:17:23.912Z,72470
2017-01-16T01:17:32.590Z,72467
2017-01-16T01:17:41.299Z,72468
2017-01-16T01:17:49.971Z,72472
2017-01-16T01:17:58.653Z,72470
2017-01-16T01:18:07.335Z,72471
2017-01-16T01:18:16.012Z,72464
2017-01-16T01:18:24.665Z,72470
2017-01-16T01:18:33.348Z,72471
2017-01-16T01:18:42.028Z,72469
2017-01-16T01:18:50.701Z,72469
2017-01-16T01:18:59.361Z,72471
2017-01-16T01:19:08.030Z,72469
2017-01-16T01:19:16.686Z,72467
2017-01-16T01:19:25.354Z,72468
2017-01-16T01:19:34.032Z,72465
2017-01-16T01:19:42.703Z,72469
2017-01-16T01:19:51.390Z,72469
2017-01-16T01:20:00.067Z,72471
2017-01-16T01:20:08.727Z,72468
2017-01-16T01:20:17.407Z,72470
2017-01-16T01:20:26.092Z,72470
2017-01-16T01:20:34.761Z,72470
2017-01-16T01:20:43.440Z,72473
2017-01-16T01:20:52.110Z,72472
2017-01-16T01:21:00.813Z,72469
2017-01-16T01:21:09.491Z,72468
2017-01-16T01:21:18.160Z,72472
2017-01-16T01:21:26.838Z,72470
2017-01-16T01:21:35.512Z,72470
2017-01-16T01:21:44.172Z,72471
2017-01-16T01:21:52.876Z,72468
2017-01-16T01:22:01.539Z,72471
2017-01-16T01:22:10.223Z,72468
2017-01-16T01:22:18.886Z,72471
2017-01-16T01:22:27.568Z,72471
2017-01-16T01:22:36.261Z,72472
2017-01-16T01:22:45.316Z,72470
2017-01-16T01:22:53.974Z,72469
2017-01-16T01:23:02.683Z,72469
2017-01-16T01:23:11.363Z,72470
2017-01-16T01:23:20.028Z,72469
2017-01-16T01:23:28.700Z,72470
2017-01-16T01:23:37.378Z,72470
2017-01-16T01:23:46.052Z,72470
2017-01-16T01:23:54.749Z,72469
2017-01-16T01:24:03.430Z,72469
2017-01-16T01:24:12.100Z,72472
2017-01-16T01:24:20.764Z,72472
2017-01-16T01:24:29.419Z,72470
2017-01-16T01:24:38.114Z,72470
2017-01-16T01:24:46.788Z,72471
2017-01-16T01:24:55.446Z,72466
2017-01-16T01:25:04.109Z,72467
2017-01-16T01:25:12.796Z,72469
2017-01-16T01:25:21.463Z,72468
2017-01-16T01:25:30.141Z,72467
2017-01-16T01:25:38.812Z,72464
2017-01-16T01:25:47.499Z,72471
2017-01-16T01:25:56.176Z,72470
2017-01-16T01:26:04.850Z,72469
2017-01-16T01:26:13.521Z,72468
2017-01-16T01:26:22.191Z,72468
2017-01-16T01:26:30.863Z,72470
2017-01-16T01:26:39.535Z,72468
2017-01-16T01:26:48.193Z,72468
2017-01-16T01:26:56.864Z,72467
2017-01-16T01:27:05.540Z,72471
2017-01-16T01:27:14.218Z,72468
2017-01-16T01:27:22.889Z,72474
2017-01-16T01:27:31.533Z,72467
2017-01-16T01:27:40.211Z,72467
2017-01-16T01:27:48.901Z,72466
2017-01-16T01:27:57.590Z,72468
2017-01-16T01:28:06.294Z,72462
2017-01-16T01:28:14.968Z,72468
2017-01-16T01:28:23.630Z,72465
2017-01-16T01:28:32.298Z,72466
2017-01-16T01:28:40.972Z,72463
2017-01-16T01:28:49.610Z,72465
2017-01-16T01:28:58.294Z,72462
2017-01-16T01:29:07.025Z,72465
2017-01-16T01:29:15.700Z,72463
2017-01-16T01:29:24.357Z,72465
2017-01-16T01:29:33.029Z,72459
2017-01-16T01:29:41.719Z,72460
2017-01-16T01:29:50.390Z,72465
2017-01-16T01:29:59.035Z,72463
2017-01-16T01:30:08.080Z,72461
2017-01-16T01:30:16.768Z,72459
2017-01-16T01:30:25.435Z,72461
2017-01-16T01:30:34.104Z,72469
2017-01-16T01:30:42.787Z,72463
2017-01-16T01:30:51.460Z,72464
2017-01-16T01:31:00.137Z,72461
2017-01-16T01:31:08.804Z,72463
2017-01-16T01:31:17.467Z,72462
2017-01-16T01:31:26.150Z,72459
2017-01-16T01:31:34.826Z,72460
2017-01-16T01:31:43.495Z,72464
2017-01-16T01:31:52.163Z,72461
2017-01-16T01:32:00.832Z,72465
2017-01-16T01:32:09.515Z,72462
2017-01-16T01:32:18.178Z,72467
2017-01-16T01:32:26.856Z,72462
2017-01-16T01:32:35.536Z,72467
2017-01-16T01:32:44.204Z,72464
2017-01-16T01:32:52.863Z,72464
2017-01-16T01:33:01.556Z,72470
2017-01-16T01:33:10.218Z,72464
2017-01-16T01:33:18.876Z,72470
2017-01-16T01:33:27.558Z,72468
2017-01-16T01:33:36.230Z,72469
2017-01-16T01:33:44.916Z,72466
2017-01-16T01:33:53.588Z,72460
2017-01-16T01:34:02.276Z,72463
2017-01-16T01:34:10.965Z,72464
2017-01-16T01:34:19.641Z,72464
2017-01-16T01:34:28.306Z,72464
2017-01-16T01:34:36.989Z,72468
2017-01-16T01:34:45.666Z,72466
2017-01-16T01:34:54.333Z,72467
2017-01-16T01:35:03.029Z,72464
2017-01-16T01:35:11.693Z,72466
2017-01-16T01:35:20.370Z,72469
2017-01-16T01:35:29.033Z,72468
2017-01-16T01:35:37.705Z,72467
2017-01-16T01:35:46.385Z,72464
2017-01-16T01:35:55.042Z,72460
2017-01-16T01:36:03.762Z,72464
2017-01-16T01:36:12.446Z,72462
2017-01-16T01:36:21.111Z,72462
2017-01-16T01:36:29.799Z,72462
2017-01-16T01:36:38.475Z,72464
2017-01-16T01:36:47.158Z,72463
2017-01-16T01:36:56.202Z,72463
2017-01-16T01:37:04.888Z,72467
2017-01-16T01:37:13.495Z,72461
2017-01-16T01:37:22.182Z,72465
2017-01-16T01:37:30.842Z,72463
2017-01-16T01:37:39.535Z,72460
2017-01-16T01:37:48.222Z,72467
2017-01-16T01:37:56.873Z,72463
2017-01-16T01:38:05.590Z,72465
2017-01-16T01:38:14.254Z,72465
2017-01-16T01:38:22.948Z,72464
2017-01-16T01:38:31.614Z,72461
2017-01-16T01:38:40.294Z,72464
2017-01-16T01:38:48.982Z,72466
2017-01-16T01:38:57.663Z,72464
2017-01-16T01:39:06.336Z,72465
2017-01-16T01:39:15.022Z,72463
2017-01-16T01:39:24.064Z,72464
2017-01-16T01:39:32.739Z,72463
2017-01-16T01:39:41.389Z,72464
2017-01-16T01:39:50.047Z,72464
2017-01-16T01:39:58.732Z,72465
2017-01-16T01:40:07.390Z,72464
2017-01-16T01:40:16.068Z,72461
2017-01-16T01:40:24.750Z,72465
2017-01-16T01:40:33.423Z,72462
2017-01-16T01:40:42.103Z,72465
2017-01-16T01:40:50.773Z,72461
2017-01-16T01:40:59.444Z,72465
2017-01-16T01:41:08.117Z,72463
2017-01-16T01:41:16.814Z,72464
2017-01-16T01:41:25.484Z,72463
2017-01-16T01:41:34.150Z,72466
2017-01-16T01:41:42.815Z,72464
2017-01-16T01:41:51.494Z,72465
2017-01-16T01:42:00.163Z,72463
2017-01-16T01:42:08.856Z,72465
2017-01-16T01:42:17.537Z,72466
2017-01-16T01:42:26.204Z,72461
2017-01-16T01:42:34.890Z,72460
2017-01-16T01:42:43.582Z,72461
2017-01-16T01:42:52.252Z,72461
2017-01-16T01:43:00.923Z,72461
2017-01-16T01:43:09.626Z,72463
2017-01-16T01:43:18.299Z,72466
2017-01-16T01:43:26.959Z,72465
2017-01-16T01:43:35.651Z,72467
2017-01-16T01:43:44.328Z,72461
2017-01-16T01:43:52.972Z,72465
2017-01-16T01:44:01.625Z,72469
2017-01-16T01:44:10.316Z,72468
2017-01-16T01:44:18.999Z,72466
2017-01-16T01:44:27.673Z,72466
2017-01-16T01:44:36.331Z,72463
2017-01-16T01:44:45.006Z,72465
2017-01-16T01:44:53.665Z,72465
2017-01-16T01:45:02.332Z,72463
2017-01-16T01:45:11.049Z,72467
2017-01-16T01:45:19.725Z,72464
2017-01-16T01:45:28.372Z,72466
2017-01-16T01:45:37.043Z,72467
2017-01-16T01:45:45.710Z,72465
2017-01-16T01:45:54.377Z,72468
2017-01-16T01:46:03.055Z,72466
2017-01-16T01:46:11.725Z,72467
2017-01-16T01:46:20.385Z,72467
2017-01-16T01:46:29.054Z,72468
2017-01-16T01:46:37.743Z,72467
2017-01-16T01:46:46.417Z,72464
2017-01-16T01:46:55.091Z,72465
2017-01-16T01:47:03.764Z,72466
2017-01-16T01:47:12.443Z,72465
2017-01-16T01:47:21.117Z,72463
2017-01-16T01:47:29.779Z,72464
2017-01-16T01:47:38.460Z,72462
2017-01-16T01:47:47.123Z,72465
2017-01-16T01:47:55.805Z,72464
2017-01-16T01:48:04.484Z,72465
2017-01-16T01:48:13.158Z,72464
2017-01-16T01:48:21.839Z,72463
2017-01-16T01:48:30.517Z,72465
2017-01-16T01:48:39.186Z,72462
2017-01-16T01:48:47.863Z,72461
2017-01-16T01:48:56.545Z,72464
2017-01-16T01:49:05.235Z,72461
2017-01-16T01:49:13.907Z,72464
2017-01-16T01:49:22.594Z,72460
2017-01-16T01:49:31.255Z,72464
2017-01-16T01:49:39.937Z,72462
2017-01-16T01:49:48.594Z,72458
2017-01-16T01:49:57.238Z,72461
2017-01-16T01:50:05.890Z,72460
2017-01-16T01:50:14.561Z,72463
2017-01-16T01:50:23.239Z,72459
2017-01-16T01:50:31.914Z,72462
2017-01-16T01:50:40.577Z,72459
2017-01-16T01:50:49.245Z,72460
2017-01-16T01:50:57.939Z,72460
2017-01-16T01:51:06.596Z,72460
2017-01-16T01:51:15.271Z,72457
2017-01-16T01:51:23.951Z,72459
2017-01-16T01:51:32.646Z,72460
2017-01-16T01:51:41.329Z,72461
2017-01-16T01:51:50.013Z,72459